sensor_id;sensor_type;location;lat;lon;timestamp;temperature;humidity
17452;DHT22;8843;48.838;9.324;2024-03-02T00:00:39;9.70;93.40
17452;DHT22;8843;48.838;9.324;2024-03-02T00:03:07;9.70;93.40
17452;DHT22;8843;48.838;9.324;2024-03-02T00:05:36;9.70;93.40
17452;DHT22;8843;48.838;9.324;2024-03-02T00:08:04;9.60;93.40
17452;DHT22;8843;48.838;9.324;2024-03-02T00:10:36;9.70;93.40
17452;DHT22;8843;48.838;9.324;2024-03-02T00:13:05;9.70;93.40
17452;DHT22;8843;48.838;9.324;2024-03-02T00:15:41;9.70;93.40
17452;DHT22;8843;48.838;9.324;2024-03-02T00:18:10;9.70;93.40
17452;DHT22;8843;48.838;9.324;2024-03-02T00:20:39;9.70;93.40
17452;DHT22;8843;48.838;9.324;2024-03-02T00:23:08;9.70;93.40
17452;DHT22;8843;48.838;9.324;2024-03-02T00:25:39;9.60;93.40
17452;DHT22;8843;48.838;9.324;2024-03-02T00:28:13;9.60;93.30
17452;DHT22;8843;48.838;9.324;2024-03-02T00:30:54;9.60;93.30
17452;DHT22;8843;48.838;9.324;2024-03-02T00:33:21;9.60;93.30
17452;DHT22;8843;48.838;9.324;2024-03-02T00:35:50;9.60;93.30
17452;DHT22;8843;48.838;9.324;2024-03-02T00:38:17;9.60;93.30
17452;DHT22;8843;48.838;9.324;2024-03-02T00:40:45;9.70;93.40
17452;DHT22;8843;48.838;9.324;2024-03-02T00:46:12;9.60;93.70
17452;DHT22;8843;48.838;9.324;2024-03-02T00:48:47;9.60;93.30
17452;DHT22;8843;48.838;9.324;2024-03-02T00:51:16;9.60;93.30
17452;DHT22;8843;48.838;9.324;2024-03-02T00:53:42;9.60;93.30
17452;DHT22;8843;48.838;9.324;2024-03-02T00:56:10;9.60;93.30
17452;DHT22;8843;48.838;9.324;2024-03-02T00:58:38;9.60;93.30
17452;DHT22;8843;48.838;9.324;2024-03-02T01:01:05;9.60;93.30
17452;DHT22;8843;48.838;9.324;2024-03-02T01:03:32;9.60;93.30
17452;DHT22;8843;48.838;9.324;2024-03-02T01:05:58;9.60;93.30
17452;DHT22;8843;48.838;9.324;2024-03-02T01:08:27;9.60;93.30
17452;DHT22;8843;48.838;9.324;2024-03-02T01:10:54;9.60;93.30
17452;DHT22;8843;48.838;9.324;2024-03-02T01:13:22;9.60;93.30
17452;DHT22;8843;48.838;9.324;2024-03-02T01:15:49;9.60;93.30
17452;DHT22;8843;48.838;9.324;2024-03-02T01:18:16;9.60;93.30
17452;DHT22;8843;48.838;9.324;2024-03-02T01:20:43;9.60;93.30
17452;DHT22;8843;48.838;9.324;2024-03-02T01:23:10;9.60;93.30
17452;DHT22;8843;48.838;9.324;2024-03-02T01:25:38;9.60;93.30
17452;DHT22;8843;48.838;9.324;2024-03-02T01:28:05;9.60;93.30
17452;DHT22;8843;48.838;9.324;2024-03-02T01:30:32;9.60;93.30
17452;DHT22;8843;48.838;9.324;2024-03-02T01:33:00;9.60;93.30
17452;DHT22;8843;48.838;9.324;2024-03-02T01:35:27;9.60;93.30
17452;DHT22;8843;48.838;9.324;2024-03-02T01:37:54;9.60;93.30
17452;DHT22;8843;48.838;9.324;2024-03-02T01:40:21;9.60;93.30
17452;DHT22;8843;48.838;9.324;2024-03-02T01:42:53;9.60;93.30
17452;DHT22;8843;48.838;9.324;2024-03-02T01:45:20;9.60;93.30
17452;DHT22;8843;48.838;9.324;2024-03-02T01:47:47;9.60;93.60
17452;DHT22;8843;48.838;9.324;2024-03-02T01:50:14;9.60;93.30
17452;DHT22;8843;48.838;9.324;2024-03-02T01:52:41;9.60;93.30
17452;DHT22;8843;48.838;9.324;2024-03-02T01:55:09;9.50;93.50
17452;DHT22;8843;48.838;9.324;2024-03-02T01:57:36;9.50;93.20
17452;DHT22;8843;48.838;9.324;2024-03-02T02:00:06;9.50;93.20
17452;DHT22;8843;48.838;9.324;2024-03-02T02:02:35;9.50;93.20
17452;DHT22;8843;48.838;9.324;2024-03-02T02:05:02;9.50;93.20
17452;DHT22;8843;48.838;9.324;2024-03-02T02:07:29;9.50;93.20
17452;DHT22;8843;48.838;9.324;2024-03-02T02:09:56;9.50;93.20
17452;DHT22;8843;48.838;9.324;2024-03-02T02:12:23;9.50;93.20
17452;DHT22;8843;48.838;9.324;2024-03-02T02:14:50;9.50;93.20
17452;DHT22;8843;48.838;9.324;2024-03-02T02:17:19;9.50;93.20
17452;DHT22;8843;48.838;9.324;2024-03-02T02:19:45;9.50;93.20
17452;DHT22;8843;48.838;9.324;2024-03-02T02:22:14;9.50;93.20
17452;DHT22;8843;48.838;9.324;2024-03-02T02:24:41;9.50;93.20
17452;DHT22;8843;48.838;9.324;2024-03-02T02:27:09;9.50;93.20
17452;DHT22;8843;48.838;9.324;2024-03-02T02:29:36;9.50;93.10
17452;DHT22;8843;48.838;9.324;2024-03-02T02:32:03;9.50;93.20
17452;DHT22;8843;48.838;9.324;2024-03-02T02:34:30;9.50;93.10
17452;DHT22;8843;48.838;9.324;2024-03-02T02:36:57;9.50;93.10
17452;DHT22;8843;48.838;9.324;2024-03-02T02:39:25;9.50;93.10
17452;DHT22;8843;48.838;9.324;2024-03-02T02:41:52;9.50;93.20
17452;DHT22;8843;48.838;9.324;2024-03-02T02:44:19;9.50;93.10
17452;DHT22;8843;48.838;9.324;2024-03-02T02:46:46;9.40;93.10
17452;DHT22;8843;48.838;9.324;2024-03-02T02:49:13;9.50;93.10
17452;DHT22;8843;48.838;9.324;2024-03-02T02:51:40;9.40;93.10
17452;DHT22;8843;48.838;9.324;2024-03-02T02:54:06;9.40;93.10
17452;DHT22;8843;48.838;9.324;2024-03-02T02:56:35;9.40;93.10
17452;DHT22;8843;48.838;9.324;2024-03-02T02:59:01;9.40;93.10
17452;DHT22;8843;48.838;9.324;2024-03-02T03:01:28;9.40;93.00
17452;DHT22;8843;48.838;9.324;2024-03-02T03:03:55;9.40;93.10
17452;DHT22;8843;48.838;9.324;2024-03-02T03:06:22;9.40;93.00
17452;DHT22;8843;48.838;9.324;2024-03-02T03:08:49;9.40;93.00
17452;DHT22;8843;48.838;9.324;2024-03-02T03:11:16;9.40;93.00
17452;DHT22;8843;48.838;9.324;2024-03-02T03:13:44;9.40;93.10
17452;DHT22;8843;48.838;9.324;2024-03-02T03:16:11;9.40;93.00
17452;DHT22;8843;48.838;9.324;2024-03-02T03:18:38;9.40;93.00
17452;DHT22;8843;48.838;9.324;2024-03-02T03:21:05;9.40;93.00
17452;DHT22;8843;48.838;9.324;2024-03-02T03:23:31;9.40;93.10
17452;DHT22;8843;48.838;9.324;2024-03-02T03:25:58;9.40;93.00
17452;DHT22;8843;48.838;9.324;2024-03-02T03:28:26;9.40;93.00
17452;DHT22;8843;48.838;9.324;2024-03-02T03:30:54;9.40;93.00
17452;DHT22;8843;48.838;9.324;2024-03-02T03:33:21;9.40;93.00
17452;DHT22;8843;48.838;9.324;2024-03-02T03:35:48;9.40;93.00
17452;DHT22;8843;48.838;9.324;2024-03-02T03:38:15;9.40;93.00
17452;DHT22;8843;48.838;9.324;2024-03-02T03:40:41;9.40;93.00
17452;DHT22;8843;48.838;9.324;2024-03-02T03:43:09;9.40;93.00
17452;DHT22;8843;48.838;9.324;2024-03-02T03:45:36;9.40;93.00
17452;DHT22;8843;48.838;9.324;2024-03-02T03:48:05;9.40;93.00
17452;DHT22;8843;48.838;9.324;2024-03-02T03:50:32;9.40;92.90
17452;DHT22;8843;48.838;9.324;2024-03-02T03:52:58;9.30;92.90
17452;DHT22;8843;48.838;9.324;2024-03-02T03:55:25;9.40;92.90
17452;DHT22;8843;48.838;9.324;2024-03-02T03:57:52;9.40;93.00
17452;DHT22;8843;48.838;9.324;2024-03-02T04:00:19;9.30;92.90
17452;DHT22;8843;48.838;9.324;2024-03-02T04:02:46;9.40;92.90
17452;DHT22;8843;48.838;9.324;2024-03-02T04:05:14;9.30;92.90
17452;DHT22;8843;48.838;9.324;2024-03-02T04:07:41;9.30;92.80
17452;DHT22;8843;48.838;9.324;2024-03-02T04:10:09;9.30;92.80
17452;DHT22;8843;48.838;9.324;2024-03-02T04:12:38;9.30;92.90
17452;DHT22;8843;48.838;9.324;2024-03-02T04:15:05;9.30;92.80
17452;DHT22;8843;48.838;9.324;2024-03-02T04:17:33;9.30;92.80
17452;DHT22;8843;48.838;9.324;2024-03-02T04:20:01;9.30;93.10
17452;DHT22;8843;48.838;9.324;2024-03-02T04:22:33;9.30;92.80
17452;DHT22;8843;48.838;9.324;2024-03-02T04:25:01;9.30;92.70
17452;DHT22;8843;48.838;9.324;2024-03-02T04:27:30;9.30;93.10
17452;DHT22;8843;48.838;9.324;2024-03-02T04:29:58;9.30;92.70
17452;DHT22;8843;48.838;9.324;2024-03-02T04:32:25;9.30;93.10
17452;DHT22;8843;48.838;9.324;2024-03-02T04:34:52;9.30;92.70
17452;DHT22;8843;48.838;9.324;2024-03-02T04:37:19;9.30;92.70
17452;DHT22;8843;48.838;9.324;2024-03-02T04:39:47;9.30;92.70
17452;DHT22;8843;48.838;9.324;2024-03-02T04:42:14;9.30;92.70
17452;DHT22;8843;48.838;9.324;2024-03-02T04:44:41;9.30;92.70
17452;DHT22;8843;48.838;9.324;2024-03-02T04:47:08;9.30;92.70
17452;DHT22;8843;48.838;9.324;2024-03-02T04:49:35;9.30;92.70
17452;DHT22;8843;48.838;9.324;2024-03-02T04:52:02;9.30;92.70
17452;DHT22;8843;48.838;9.324;2024-03-02T04:54:29;9.30;92.70
17452;DHT22;8843;48.838;9.324;2024-03-02T04:56:57;9.20;92.70
17452;DHT22;8843;48.838;9.324;2024-03-02T04:59:24;9.30;92.70
17452;DHT22;8843;48.838;9.324;2024-03-02T05:01:51;9.30;92.70
17452;DHT22;8843;48.838;9.324;2024-03-02T05:04:18;9.30;92.70
17452;DHT22;8843;48.838;9.324;2024-03-02T05:06:44;9.30;92.70
17452;DHT22;8843;48.838;9.324;2024-03-02T05:09:17;9.30;92.70
17452;DHT22;8843;48.838;9.324;2024-03-02T05:11:44;9.30;92.70
17452;DHT22;8843;48.838;9.324;2024-03-02T05:14:37;9.20;92.70
17452;DHT22;8843;48.838;9.324;2024-03-02T05:17:04;9.20;92.70
17452;DHT22;8843;48.838;9.324;2024-03-02T05:19:31;9.30;92.70
17452;DHT22;8843;48.838;9.324;2024-03-02T05:21:58;9.20;92.60
17452;DHT22;8843;48.838;9.324;2024-03-02T05:24:24;9.30;92.70
17452;DHT22;8843;48.838;9.324;2024-03-02T05:26:53;9.20;92.60
17452;DHT22;8843;48.838;9.324;2024-03-02T05:29:20;9.20;92.60
17452;DHT22;8843;48.838;9.324;2024-03-02T05:31:48;9.20;92.60
17452;DHT22;8843;48.838;9.324;2024-03-02T05:34:15;9.20;92.60
17452;DHT22;8843;48.838;9.324;2024-03-02T05:36:42;9.20;92.80
17452;DHT22;8843;48.838;9.324;2024-03-02T05:39:09;9.20;92.50
17452;DHT22;8843;48.838;9.324;2024-03-02T05:41:36;9.20;92.50
17452;DHT22;8843;48.838;9.324;2024-03-02T05:44:04;9.20;92.90
17452;DHT22;8843;48.838;9.324;2024-03-02T05:46:31;9.20;92.50
17452;DHT22;8843;48.838;9.324;2024-03-02T05:48:59;9.20;92.80
17452;DHT22;8843;48.838;9.324;2024-03-02T05:51:27;9.20;92.50
17452;DHT22;8843;48.838;9.324;2024-03-02T05:53:53;9.20;92.50
17452;DHT22;8843;48.838;9.324;2024-03-02T05:56:20;9.20;92.50
17452;DHT22;8843;48.838;9.324;2024-03-02T05:58:47;9.20;92.50
17452;DHT22;8843;48.838;9.324;2024-03-02T06:01:26;9.20;92.50
17452;DHT22;8843;48.838;9.324;2024-03-02T06:03:55;9.20;92.50
17452;DHT22;8843;48.838;9.324;2024-03-02T06:06:23;9.10;92.80
17452;DHT22;8843;48.838;9.324;2024-03-02T06:08:50;9.20;92.80
17452;DHT22;8843;48.838;9.324;2024-03-02T06:11:18;9.10;92.50
17452;DHT22;8843;48.838;9.324;2024-03-02T06:13:45;9.10;92.50
17452;DHT22;8843;48.838;9.324;2024-03-02T06:16:12;9.10;92.50
17452;DHT22;8843;48.838;9.324;2024-03-02T06:18:39;9.10;92.80
17452;DHT22;8843;48.838;9.324;2024-03-02T06:21:06;9.10;92.50
17452;DHT22;8843;48.838;9.324;2024-03-02T06:23:35;9.20;92.50
17452;DHT22;8843;48.838;9.324;2024-03-02T06:26:02;9.10;92.40
17452;DHT22;8843;48.838;9.324;2024-03-02T06:28:29;9.10;92.40
17452;DHT22;8843;48.838;9.324;2024-03-02T06:30:56;9.10;92.40
17452;DHT22;8843;48.838;9.324;2024-03-02T06:33:23;9.10;92.40
17452;DHT22;8843;48.838;9.324;2024-03-02T06:35:50;9.10;92.40
17452;DHT22;8843;48.838;9.324;2024-03-02T06:38:16;9.10;92.40
17452;DHT22;8843;48.838;9.324;2024-03-02T06:40:45;9.10;92.40
17452;DHT22;8843;48.838;9.324;2024-03-02T06:43:12;9.10;92.40
17452;DHT22;8843;48.838;9.324;2024-03-02T06:45:39;9.10;92.40
17452;DHT22;8843;48.838;9.324;2024-03-02T06:48:06;9.10;92.40
17452;DHT22;8843;48.838;9.324;2024-03-02T06:50:33;9.10;92.40
17452;DHT22;8843;48.838;9.324;2024-03-02T06:53:00;9.10;92.40
17452;DHT22;8843;48.838;9.324;2024-03-02T06:55:29;9.50;95.50
17452;DHT22;8843;48.838;9.324;2024-03-02T06:57:58;9.70;93.30
17452;DHT22;8843;48.838;9.324;2024-03-02T07:00:24;9.50;92.60
17452;DHT22;8843;48.838;9.324;2024-03-02T07:02:51;9.40;92.40
17452;DHT22;8843;48.838;9.324;2024-03-02T07:05:18;9.30;92.60
17452;DHT22;8843;48.838;9.324;2024-03-02T07:07:46;9.20;92.70
17452;DHT22;8843;48.838;9.324;2024-03-02T07:10:17;9.40;95.00
17452;DHT22;8843;48.838;9.324;2024-03-02T07:12:44;10.00;92.40
17452;DHT22;8843;48.838;9.324;2024-03-02T07:15:12;9.60;88.20
17452;DHT22;8843;48.838;9.324;2024-03-02T07:18:03;9.70;89.90
17452;DHT22;8843;48.838;9.324;2024-03-02T07:20:29;9.90;91.20
17452;DHT22;8843;48.838;9.324;2024-03-02T07:22:56;10.30;90.00
17452;DHT22;8843;48.838;9.324;2024-03-02T07:25:23;9.90;90.70
17452;DHT22;8843;48.838;9.324;2024-03-02T07:27:51;9.60;90.70
17452;DHT22;8843;48.838;9.324;2024-03-02T07:30:19;9.40;91.10
17452;DHT22;8843;48.838;9.324;2024-03-02T07:32:49;9.20;91.00
17452;DHT22;8843;48.838;9.324;2024-03-02T07:35:16;9.10;91.30
17452;DHT22;8843;48.838;9.324;2024-03-02T07:37:43;9.10;91.40
17452;DHT22;8843;48.838;9.324;2024-03-02T07:40:11;9.00;91.50
17452;DHT22;8843;48.838;9.324;2024-03-02T07:42:39;9.00;91.60
17452;DHT22;8843;48.838;9.324;2024-03-02T07:45:06;9.00;91.70
17452;DHT22;8843;48.838;9.324;2024-03-02T07:47:35;9.00;91.80
17452;DHT22;8843;48.838;9.324;2024-03-02T07:50:02;9.00;92.10
17452;DHT22;8843;48.838;9.324;2024-03-02T07:52:31;9.00;91.90
17452;DHT22;8843;48.838;9.324;2024-03-02T07:54:58;8.90;91.90
17452;DHT22;8843;48.838;9.324;2024-03-02T07:57:25;8.90;92.00
17452;DHT22;8843;48.838;9.324;2024-03-02T07:59:52;8.90;92.40
17452;DHT22;8843;48.838;9.324;2024-03-02T08:02:20;8.90;92.10
17452;DHT22;8843;48.838;9.324;2024-03-02T08:04:49;8.90;92.10
17452;DHT22;8843;48.838;9.324;2024-03-02T08:07:16;8.90;92.20
17452;DHT22;8843;48.838;9.324;2024-03-02T08:09:42;8.90;92.20
17452;DHT22;8843;48.838;9.324;2024-03-02T08:12:09;8.90;92.20
17452;DHT22;8843;48.838;9.324;2024-03-02T08:14:36;8.90;92.30
17452;DHT22;8843;48.838;9.324;2024-03-02T08:17:03;8.90;92.30
17452;DHT22;8843;48.838;9.324;2024-03-02T08:19:35;8.90;92.30
17452;DHT22;8843;48.838;9.324;2024-03-02T08:22:03;8.90;92.40
17452;DHT22;8843;48.838;9.324;2024-03-02T08:24:30;8.90;92.40
17452;DHT22;8843;48.838;9.324;2024-03-02T08:26:57;8.90;92.50
17452;DHT22;8843;48.838;9.324;2024-03-02T08:29:24;8.90;92.50
17452;DHT22;8843;48.838;9.324;2024-03-02T08:31:51;8.90;92.50
17452;DHT22;8843;48.838;9.324;2024-03-02T08:34:18;8.90;92.50
17452;DHT22;8843;48.838;9.324;2024-03-02T08:36:46;8.90;92.50
17452;DHT22;8843;48.838;9.324;2024-03-02T08:39:14;8.90;92.50
17452;DHT22;8843;48.838;9.324;2024-03-02T08:41:42;8.90;92.60
17452;DHT22;8843;48.838;9.324;2024-03-02T08:44:09;8.90;92.60
17452;DHT22;8843;48.838;9.324;2024-03-02T08:46:36;8.90;92.60
17452;DHT22;8843;48.838;9.324;2024-03-02T08:49:03;8.90;92.70
17452;DHT22;8843;48.838;9.324;2024-03-02T08:51:30;8.90;92.90
17452;DHT22;8843;48.838;9.324;2024-03-02T08:53:57;8.70;92.10
17452;DHT22;8843;48.838;9.324;2024-03-02T08:56:26;8.50;92.80
17452;DHT22;8843;48.838;9.324;2024-03-02T08:58:53;8.50;92.60
17452;DHT22;8843;48.838;9.324;2024-03-02T09:01:20;8.40;92.80
17452;DHT22;8843;48.838;9.324;2024-03-02T09:03:49;9.50;95.70
17452;DHT22;8843;48.838;9.324;2024-03-02T09:06:21;10.40;92.80
17452;DHT22;8843;48.838;9.324;2024-03-02T09:08:53;10.80;91.50
17452;DHT22;8843;48.838;9.324;2024-03-02T09:11:20;11.00;91.10
17452;DHT22;8843;48.838;9.324;2024-03-02T09:13:48;10.80;90.70
17452;DHT22;8843;48.838;9.324;2024-03-02T09:16:15;10.20;91.20
17452;DHT22;8843;48.838;9.324;2024-03-02T09:18:42;9.90;92.30
17452;DHT22;8843;48.838;9.324;2024-03-02T09:21:09;9.60;92.50
17452;DHT22;8843;48.838;9.324;2024-03-02T09:23:35;9.50;92.90
17452;DHT22;8843;48.838;9.324;2024-03-02T09:26:01;9.40;93.20
17452;DHT22;8843;48.838;9.324;2024-03-02T09:28:29;9.40;93.70
17452;DHT22;8843;48.838;9.324;2024-03-02T09:30:57;9.40;93.80
17452;DHT22;8843;48.838;9.324;2024-03-02T09:33:24;9.30;94.10
17452;DHT22;8843;48.838;9.324;2024-03-02T09:35:50;9.40;94.50
17452;DHT22;8843;48.838;9.324;2024-03-02T09:38:17;9.40;94.20
17452;DHT22;8843;48.838;9.324;2024-03-02T09:40:44;9.30;93.80
17452;DHT22;8843;48.838;9.324;2024-03-02T09:43:12;9.40;94.30
17452;DHT22;8843;48.838;9.324;2024-03-02T09:45:39;9.40;94.60
17452;DHT22;8843;48.838;9.324;2024-03-02T09:48:07;9.40;94.10
17452;DHT22;8843;48.838;9.324;2024-03-02T09:50:34;9.40;93.90
17452;DHT22;8843;48.838;9.324;2024-03-02T09:53:01;9.40;94.00
17452;DHT22;8843;48.838;9.324;2024-03-02T09:55:28;9.40;94.30
17452;DHT22;8843;48.838;9.324;2024-03-02T09:57:55;9.50;94.50
17452;DHT22;8843;48.838;9.324;2024-03-02T10:00:22;9.70;94.00
17452;DHT22;8843;48.838;9.324;2024-03-02T10:02:50;9.80;94.20
17452;DHT22;8843;48.838;9.324;2024-03-02T10:05:25;9.80;93.50
17452;DHT22;8843;48.838;9.324;2024-03-02T10:07:59;10.00;92.80
17452;DHT22;8843;48.838;9.324;2024-03-02T10:10:35;10.10;91.60
17452;DHT22;8843;48.838;9.324;2024-03-02T10:13:05;10.10;92.80
17452;DHT22;8843;48.838;9.324;2024-03-02T10:15:32;10.00;93.10
17452;DHT22;8843;48.838;9.324;2024-03-02T10:17:59;10.10;93.50
17452;DHT22;8843;48.838;9.324;2024-03-02T10:20:28;10.10;93.70
17452;DHT22;8843;48.838;9.324;2024-03-02T10:22:55;10.30;93.60
17452;DHT22;8843;48.838;9.324;2024-03-02T10:25:29;10.40;94.50
17452;DHT22;8843;48.838;9.324;2024-03-02T10:27:57;11.20;90.90
17452;DHT22;8843;48.838;9.324;2024-03-02T10:30:25;11.60;91.10
17452;DHT22;8843;48.838;9.324;2024-03-02T10:32:53;12.10;90.90
17452;DHT22;8843;48.838;9.324;2024-03-02T10:35:21;12.50;86.80
17452;DHT22;8843;48.838;9.324;2024-03-02T10:37:50;12.40;88.70
17452;DHT22;8843;48.838;9.324;2024-03-02T10:40:18;12.30;90.30
17452;DHT22;8843;48.838;9.324;2024-03-02T10:42:45;12.00;91.10
17452;DHT22;8843;48.838;9.324;2024-03-02T10:45:14;11.80;90.20
17452;DHT22;8843;48.838;9.324;2024-03-02T10:47:42;11.60;90.50
17452;DHT22;8843;48.838;9.324;2024-03-02T10:50:10;11.60;90.20
17452;DHT22;8843;48.838;9.324;2024-03-02T10:52:37;11.90;92.50
17452;DHT22;8843;48.838;9.324;2024-03-02T10:55:07;12.40;92.90
17452;DHT22;8843;48.838;9.324;2024-03-02T10:57:41;12.60;92.20
17452;DHT22;8843;48.838;9.324;2024-03-02T11:00:12;12.80;92.20
17452;DHT22;8843;48.838;9.324;2024-03-02T11:02:44;12.80;92.10
17452;DHT22;8843;48.838;9.324;2024-03-02T11:05:18;13.00;90.80
17452;DHT22;8843;48.838;9.324;2024-03-02T11:07:47;13.20;91.50
17452;DHT22;8843;48.838;9.324;2024-03-02T11:10:16;13.50;91.40
17452;DHT22;8843;48.838;9.324;2024-03-02T11:12:58;13.50;90.10
17452;DHT22;8843;48.838;9.324;2024-03-02T11:15:27;13.80;90.80
17452;DHT22;8843;48.838;9.324;2024-03-02T11:17:55;14.20;90.10
17452;DHT22;8843;48.838;9.324;2024-03-02T11:20:22;14.40;89.80
17452;DHT22;8843;48.838;9.324;2024-03-02T11:22:50;14.50;89.20
17452;DHT22;8843;48.838;9.324;2024-03-02T11:25:25;14.50;86.70
17452;DHT22;8843;48.838;9.324;2024-03-02T11:28:05;14.90;89.60
17452;DHT22;8843;48.838;9.324;2024-03-02T11:30:50;15.10;87.80
17452;DHT22;8843;48.838;9.324;2024-03-02T11:33:23;15.40;85.20
17452;DHT22;8843;48.838;9.324;2024-03-02T11:35:52;15.40;86.20
17452;DHT22;8843;48.838;9.324;2024-03-02T11:38:19;15.50;85.30
17452;DHT22;8843;48.838;9.324;2024-03-02T11:40:48;15.50;84.70
17452;DHT22;8843;48.838;9.324;2024-03-02T11:43:15;15.60;84.90
17452;DHT22;8843;48.838;9.324;2024-03-02T11:45:43;15.80;83.20
17452;DHT22;8843;48.838;9.324;2024-03-02T11:48:11;16.00;81.90
17452;DHT22;8843;48.838;9.324;2024-03-02T11:50:41;15.80;81.30
17452;DHT22;8843;48.838;9.324;2024-03-02T11:53:10;16.00;82.80
17452;DHT22;8843;48.838;9.324;2024-03-02T11:55:39;16.20;81.20
17452;DHT22;8843;48.838;9.324;2024-03-02T11:58:08;16.20;81.20
17452;DHT22;8843;48.838;9.324;2024-03-02T12:00:35;16.00;80.20
17452;DHT22;8843;48.838;9.324;2024-03-02T12:03:04;16.20;80.20
17452;DHT22;8843;48.838;9.324;2024-03-02T12:05:32;16.20;80.10
17452;DHT22;8843;48.838;9.324;2024-03-02T12:08:00;16.50;78.90
17452;DHT22;8843;48.838;9.324;2024-03-02T12:10:28;16.40;76.20
17452;DHT22;8843;48.838;9.324;2024-03-02T12:12:56;16.30;78.90
17452;DHT22;8843;48.838;9.324;2024-03-02T12:15:26;16.60;78.20
17452;DHT22;8843;48.838;9.324;2024-03-02T12:17:54;16.50;75.70
17452;DHT22;8843;48.838;9.324;2024-03-02T12:20:21;16.60;75.10
17452;DHT22;8843;48.838;9.324;2024-03-02T12:22:50;16.60;74.90
17452;DHT22;8843;48.838;9.324;2024-03-02T12:25:18;16.50;76.00
17452;DHT22;8843;48.838;9.324;2024-03-02T12:27:45;16.70;74.60
17452;DHT22;8843;48.838;9.324;2024-03-02T12:30:12;16.60;74.60
17452;DHT22;8843;48.838;9.324;2024-03-02T12:32:41;16.10;74.70
17452;DHT22;8843;48.838;9.324;2024-03-02T12:35:09;16.50;75.60
17452;DHT22;8843;48.838;9.324;2024-03-02T12:37:43;16.60;74.70
17452;DHT22;8843;48.838;9.324;2024-03-02T12:40:10;16.60;73.60
17452;DHT22;8843;48.838;9.324;2024-03-02T12:42:38;16.50;74.70
17452;DHT22;8843;48.838;9.324;2024-03-02T12:45:05;16.60;73.80
17452;DHT22;8843;48.838;9.324;2024-03-02T12:47:33;16.70;72.60
17452;DHT22;8843;48.838;9.324;2024-03-02T12:50:03;16.80;72.80
17452;DHT22;8843;48.838;9.324;2024-03-02T12:52:30;16.80;72.90
17452;DHT22;8843;48.838;9.324;2024-03-02T12:54:58;16.70;72.90
17452;DHT22;8843;48.838;9.324;2024-03-02T12:57:26;16.80;73.80
17452;DHT22;8843;48.838;9.324;2024-03-02T12:59:58;16.50;72.00
17452;DHT22;8843;48.838;9.324;2024-03-02T13:02:28;16.70;73.10
17452;DHT22;8843;48.838;9.324;2024-03-02T13:04:55;16.90;72.50
17452;DHT22;8843;48.838;9.324;2024-03-02T13:07:24;16.80;73.20
17452;DHT22;8843;48.838;9.324;2024-03-02T13:09:52;16.60;72.30
17452;DHT22;8843;48.838;9.324;2024-03-02T13:12:21;16.80;72.20
17452;DHT22;8843;48.838;9.324;2024-03-02T13:14:48;16.80;72.20
17452;DHT22;8843;48.838;9.324;2024-03-02T13:17:17;17.00;66.90
17452;DHT22;8843;48.838;9.324;2024-03-02T13:19:51;17.20;66.70
17452;DHT22;8843;48.838;9.324;2024-03-02T13:22:19;17.10;65.10
17452;DHT22;8843;48.838;9.324;2024-03-02T13:24:47;17.00;66.40
17452;DHT22;8843;48.838;9.324;2024-03-02T13:27:14;16.90;65.90
17452;DHT22;8843;48.838;9.324;2024-03-02T13:29:42;16.90;69.60
17452;DHT22;8843;48.838;9.324;2024-03-02T13:32:08;16.80;69.50
17452;DHT22;8843;48.838;9.324;2024-03-02T13:34:36;16.70;70.70
17452;DHT22;8843;48.838;9.324;2024-03-02T13:37:03;16.90;71.00
17452;DHT22;8843;48.838;9.324;2024-03-02T13:39:31;17.10;70.30
17452;DHT22;8843;48.838;9.324;2024-03-02T13:41:59;17.10;70.10
17452;DHT22;8843;48.838;9.324;2024-03-02T13:44:29;16.90;69.20
17452;DHT22;8843;48.838;9.324;2024-03-02T13:46:56;16.90;69.00
17452;DHT22;8843;48.838;9.324;2024-03-02T13:49:23;17.20;69.10
17452;DHT22;8843;48.838;9.324;2024-03-02T13:51:54;17.00;68.30
17452;DHT22;8843;48.838;9.324;2024-03-02T13:54:22;17.30;67.40
17452;DHT22;8843;48.838;9.324;2024-03-02T13:56:49;17.50;66.90
17452;DHT22;8843;48.838;9.324;2024-03-02T13:59:18;17.20;68.00
17452;DHT22;8843;48.838;9.324;2024-03-02T14:01:44;17.20;67.80
17452;DHT22;8843;48.838;9.324;2024-03-02T14:04:11;17.10;67.60
17452;DHT22;8843;48.838;9.324;2024-03-02T14:06:38;17.20;66.60
17452;DHT22;8843;48.838;9.324;2024-03-02T14:09:05;16.80;68.30
17452;DHT22;8843;48.838;9.324;2024-03-02T14:11:32;16.90;67.70
17452;DHT22;8843;48.838;9.324;2024-03-02T14:13:59;16.70;66.30
17452;DHT22;8843;48.838;9.324;2024-03-02T14:16:27;16.70;67.40
17452;DHT22;8843;48.838;9.324;2024-03-02T14:18:54;16.70;68.20
17452;DHT22;8843;48.838;9.324;2024-03-02T14:21:21;17.00;65.80
17452;DHT22;8843;48.838;9.324;2024-03-02T14:23:48;17.00;65.50
17452;DHT22;8843;48.838;9.324;2024-03-02T14:26:15;17.00;65.10
17452;DHT22;8843;48.838;9.324;2024-03-02T14:28:43;17.00;65.10
17452;DHT22;8843;48.838;9.324;2024-03-02T14:31:10;17.00;64.50
17452;DHT22;8843;48.838;9.324;2024-03-02T14:33:38;17.00;65.10
17452;DHT22;8843;48.838;9.324;2024-03-02T14:36:05;17.00;64.40
17452;DHT22;8843;48.838;9.324;2024-03-02T14:38:33;16.80;64.00
17452;DHT22;8843;48.838;9.324;2024-03-02T14:41:00;16.80;64.40
17452;DHT22;8843;48.838;9.324;2024-03-02T14:43:27;16.80;63.80
17452;DHT22;8843;48.838;9.324;2024-03-02T14:45:53;16.80;63.80
17452;DHT22;8843;48.838;9.324;2024-03-02T14:48:21;16.80;63.90
17452;DHT22;8843;48.838;9.324;2024-03-02T14:50:49;16.70;64.70
17452;DHT22;8843;48.838;9.324;2024-03-02T14:53:16;16.50;64.70
17452;DHT22;8843;48.838;9.324;2024-03-02T14:55:43;16.60;64.70
17452;DHT22;8843;48.838;9.324;2024-03-02T14:58:10;16.40;63.30
17452;DHT22;8843;48.838;9.324;2024-03-02T15:00:37;16.60;63.60
17452;DHT22;8843;48.838;9.324;2024-03-02T15:03:04;16.60;63.40
17452;DHT22;8843;48.838;9.324;2024-03-02T15:05:34;16.60;63.70
17452;DHT22;8843;48.838;9.324;2024-03-02T15:08:02;16.30;64.20
17452;DHT22;8843;48.838;9.324;2024-03-02T15:10:30;16.20;64.10
17452;DHT22;8843;48.838;9.324;2024-03-02T15:12:57;16.20;64.40
17452;DHT22;8843;48.838;9.324;2024-03-02T15:15:24;16.10;64.70
17452;DHT22;8843;48.838;9.324;2024-03-02T15:17:51;16.30;65.50
17452;DHT22;8843;48.838;9.324;2024-03-02T15:20:18;16.20;65.50
17452;DHT22;8843;48.838;9.324;2024-03-02T15:22:46;16.30;64.70
17452;DHT22;8843;48.838;9.324;2024-03-02T15:25:14;15.90;66.30
17452;DHT22;8843;48.838;9.324;2024-03-02T15:27:41;15.70;66.90
17452;DHT22;8843;48.838;9.324;2024-03-02T15:30:09;15.70;62.70
17452;DHT22;8843;48.838;9.324;2024-03-02T15:32:36;15.50;60.20
17452;DHT22;8843;48.838;9.324;2024-03-02T15:35:04;15.60;68.30
17452;DHT22;8843;48.838;9.324;2024-03-02T15:37:32;15.60;63.80
17452;DHT22;8843;48.838;9.324;2024-03-02T15:39:59;15.60;66.40
17452;DHT22;8843;48.838;9.324;2024-03-02T15:42:32;15.50;64.50
17452;DHT22;8843;48.838;9.324;2024-03-02T15:44:59;15.30;65.70
17452;DHT22;8843;48.838;9.324;2024-03-02T15:47:26;15.30;65.50
17452;DHT22;8843;48.838;9.324;2024-03-02T15:49:53;15.10;65.70
17452;DHT22;8843;48.838;9.324;2024-03-02T15:52:20;15.10;65.20
17452;DHT22;8843;48.838;9.324;2024-03-02T15:54:47;15.00;65.10
17452;DHT22;8843;48.838;9.324;2024-03-02T15:57:14;14.80;65.70
17452;DHT22;8843;48.838;9.324;2024-03-02T15:59:43;14.80;65.50
17452;DHT22;8843;48.838;9.324;2024-03-02T16:02:10;14.80;65.50